Time;durP1;ratioP1;P1;durP2;ratioP2;P2;SDS_P1;SDS_P2;PMS_P1;PMS_P2;Temp;Humidity;BMP_temperature;BMP_pressure;BME280_temperature;BME280_humidity;BME280_pressure;Samples;Min_cycle;Max_cycle;Signal;HPM_P1;HPM_P2
2023/07/30 00:00:41;;;;;;;4.07;3.80;;;;;;;17.23;79.24;100619.03;4994558;28;20702;-72
2023/07/30 00:03:07;;;;;;;4.37;3.97;;;;;;;17.25;79.35;100619.69;4994242;28;20209;-72
2023/07/30 00:05:34;;;;;;;10.87;3.90;;;;;;;17.32;78.30;100617.84;4994262;28;20193;-72
2023/07/30 00:08:00;;;;;;;5.70;4.20;;;;;;;17.24;78.56;100612.59;4994188;28;20251;-72
2023/07/30 00:10:27;;;;;;;4.40;4.07;;;;;;;17.25;78.33;100616.97;4994168;28;20193;-72
2023/07/30 00:12:53;;;;;;;4.30;3.90;;;;;;;17.19;78.25;100617.75;4994217;28;20217;-72
2023/07/30 00:15:20;;;;;;;10.33;4.50;;;;;;;17.09;78.86;100626.22;4994653;28;20548;-72
2023/07/30 00:17:46;;;;;;;15.37;4.37;;;;;;;17.13;78.03;100626.66;4994041;28;20240;-72
2023/07/30 00:20:13;;;;;;;4.47;4.47;;;;;;;17.11;78.22;100623.31;4994566;28;20197;-72
2023/07/30 00:22:39;;;;;;;4.50;4.30;;;;;;;16.96;78.94;100617.19;4993976;28;20213;-72
2023/07/30 00:25:06;;;;;;;4.43;3.73;;;;;;;16.89;78.52;100609.00;4994596;28;20237;-72
2023/07/30 00:27:32;;;;;;;6.90;4.37;;;;;;;16.89;78.88;100611.72;4994680;28;20259;-72
2023/07/30 00:29:59;;;;;;;5.53;3.63;;;;;;;16.86;78.75;100621.03;4993960;28;20252;-72
2023/07/30 00:32:25;;;;;;;3.80;3.53;;;;;;;16.79;78.88;100616.63;4993906;28;20197;-72
2023/07/30 00:34:52;;;;;;;3.63;3.53;;;;;;;16.79;79.03;100627.44;4994433;28;20272;-72
2023/07/30 00:37:19;;;;;;;4.93;3.87;;;;;;;16.75;78.93;100624.28;4993850;28;20196;-72
2023/07/30 00:39:45;;;;;;;17.10;4.50;;;;;;;16.71;79.48;100623.00;4992629;28;20603;-72
2023/07/30 00:42:12;;;;;;;4.63;3.30;;;;;;;16.69;78.88;100622.34;4992571;28;20656;-72
2023/07/30 00:44:38;;;;;;;4.73;4.30;;;;;;;16.70;78.63;100620.47;4994284;28;20205;-72
2023/07/30 00:47:05;;;;;;;6.77;4.17;;;;;;;16.68;78.62;100619.81;4993757;28;20259;-72
2023/07/30 00:49:32;;;;;;;6.73;4.50;;;;;;;16.63;77.94;100619.59;4993797;28;20536;-72
2023/07/30 00:51:59;;;;;;;5.00;3.87;;;;;;;16.70;77.33;100621.31;4992499;28;20205;-72
2023/07/30 00:54:25;;;;;;;5.20;4.63;;;;;;;16.70;77.33;100629.44;4993896;28;20663;-72
2023/07/30 00:56:53;;;;;;;4.03;3.73;;;;;;;16.70;76.73;100624.03;4993328;28;20273;-72
2023/07/30 00:59:23;;;;;;;7.50;3.50;;;;;;;16.67;75.89;100628.97;4993685;28;20285;-72
2023/07/30 01:01:51;;;;;;;5.70;4.00;;;;;;;16.70;75.86;100631.28;4992479;28;20192;-72
2023/07/30 01:04:18;;;;;;;6.67;3.60;;;;;;;16.56;76.17;100624.03;4992422;28;20232;-71
2023/07/30 01:06:44;;;;;;;5.13;3.57;;;;;;;16.54;76.71;100639.63;4993573;28;20722;-71
2023/07/30 01:09:11;;;;;;;7.90;3.40;;;;;;;16.48;77.43;100634.97;4993561;28;20269;-71
2023/07/30 01:11:39;;;;;;;4.97;3.47;;;;;;;16.42;77.47;100632.00;4992491;28;20315;-72
2023/07/30 01:14:09;;;;;;;3.80;3.70;;;;;;;16.37;77.67;100641.72;4991376;28;20248;-72
2023/07/30 01:16:36;;;;;;;9.53;4.57;;;;;;;16.37;77.58;100636.31;4994099;28;20252;-72
2023/07/30 01:19:04;;;;;;;4.03;3.53;;;;;;;16.26;77.50;100637.66;4993499;28;20185;-72
2023/07/30 01:21:33;;;;;;;4.20;3.87;;;;;;;16.17;78.24;100646.03;4993718;28;20200;-72
2023/07/30 01:23:59;;;;;;;3.67;3.47;;;;;;;16.07;78.89;100638.28;4993678;28;20217;-72
2023/07/30 01:26:32;;;;;;;4.20;2.87;;;;;;;15.99;79.56;100641.06;4993765;28;20192;-72
2023/07/30 01:29:02;;;;;;;3.53;3.43;;;;;;;15.92;79.75;100650.94;4996489;28;20192;-72
2023/07/30 01:31:32;;;;;;;3.50;3.13;;;;;;;15.84;80.41;100645.63;4997074;28;20656;-72
2023/07/30 01:34:01;;;;;;;3.80;3.60;;;;;;;15.83;80.57;100650.19;4997208;28;20216;-72
2023/07/30 01:36:28;;;;;;;3.70;3.60;;;;;;;15.89;81.50;100641.38;4995728;28;20204;-72
2023/07/30 01:38:56;;;;;;;4.93;4.20;;;;;;;15.97;81.90;100648.50;4995954;28;20209;-71
2023/07/30 01:41:24;;;;;;;4.03;3.70;;;;;;;15.91;82.12;100652.78;4995631;28;20216;-71
2023/07/30 01:43:50;;;;;;;15.13;3.73;;;;;;;16.09;81.45;100655.09;4995570;28;20587;-72
2023/07/30 01:46:17;;;;;;;5.13;3.97;;;;;;;16.22;80.72;100666.03;4997328;28;20201;-72
2023/07/30 01:48:43;;;;;;;7.97;4.37;;;;;;;16.23;79.98;100653.38;4996689;28;20209;-72
2023/07/30 01:51:10;;;;;;;6.10;4.30;;;;;;;16.22;79.53;100654.41;4996721;28;20189;-72
2023/07/30 01:53:36;;;;;;;4.67;4.30;;;;;;;16.33;79.05;100662.84;4995544;28;20221;-72
2023/07/30 01:56:03;;;;;;;8.20;4.47;;;;;;;16.25;79.05;100667.53;4995429;28;20189;-72
2023/07/30 01:58:29;;;;;;;5.13;4.53;;;;;;;16.14;79.70;100671.53;4995289;28;20248;-72
2023/07/30 02:00:56;;;;;;;4.87;4.40;;;;;;;16.05;79.91;100667.28;4995305;28;20599;-72
2023/07/30 02:03:23;;;;;;;14.03;4.40;;;;;;;16.11;79.61;100668.38;4995164;28;20227;-71
2023/07/30 02:05:50;;;;;;;4.37;4.17;;;;;;;16.03;80.06;100663.09;4995445;28;20193;-71
2023/07/30 02:08:17;;;;;;;5.03;3.43;;;;;;;16.08;79.96;100669.63;4995182;28;20615;-71
2023/07/30 02:10:43;;;;;;;8.90;3.93;;;;;;;15.98;80.47;100674.44;4996370;28;20189;-71
2023/07/30 02:13:11;;;;;;;5.60;4.17;;;;;;;15.87;80.98;100667.66;4995075;28;20252;-71
2023/07/30 02:15:42;;;;;;;9.50;3.60;;;;;;;15.84;81.07;100673.44;5011343;28;20204;-71
2023/07/30 02:18:10;;;;;;;3.67;3.37;;;;;;;15.78;81.42;100670.66;4997003;28;20185;-71
2023/07/30 02:20:36;;;;;;;3.90;3.57;;;;;;;15.77;82.12;100667.13;4996182;28;20193;-71
2023/07/30 02:23:03;;;;;;;4.03;3.67;;;;;;;15.79;82.27;100667.75;4996617;28;20256;-71
2023/07/30 02:25:29;;;;;;;4.07;3.47;;;;;;;15.73;82.68;100670.38;5011184;28;20660;-71
2023/07/30 02:27:56;;;;;;;9.50;3.40;;;;;;;15.75;82.78;100673.72;4995971;28;20300;-71
2023/07/30 02:30:23;;;;;;;4.27;3.73;;;;;;;15.78;82.87;100665.28;4996796;28;20236;-72
2023/07/30 02:32:49;;;;;;;8.73;4.23;;;;;;;15.83;82.81;100673.59;4996159;28;20204;-71
2023/07/30 02:35:16;;;;;;;4.47;4.20;;;;;;;15.89;82.15;100668.31;4995928;28;20609;-71
2023/07/30 02:37:42;;;;;;;10.77;4.00;;;;;;;15.98;81.81;100661.81;4995890;28;20186;-71
2023/07/30 02:40:09;;;;;;;4.73;4.43;;;;;;;15.92;81.21;100667.94;5010349;28;20605;-71
2023/07/30 02:42:36;;;;;;;6.30;4.47;;;;;;;15.90;80.96;100670.00;4995753;28;20275;-71
2023/07/30 02:45:03;;;;;;;15.43;4.80;;;;;;;15.85;80.86;100666.19;4995751;28;20185;-71
2023/07/30 02:47:29;;;;;;;10.50;3.90;;;;;;;15.92;80.55;100669.78;4995657;28;20256;-71
2023/07/30 02:49:56;;;;;;;12.60;4.87;;;;;;;15.88;80.67;100673.88;4995682;28;20240;-71
2023/07/30 02:52:22;;;;;;;8.90;4.83;;;;;;;15.77;80.82;100669.81;4995757;28;20185;-71
2023/07/30 02:54:49;;;;;;;5.17;4.10;;;;;;;15.72;81.05;100666.84;4995853;28;20532;-71
2023/07/30 02:57:15;;;;;;;4.27;3.87;;;;;;;15.68;81.04;100670.94;4994237;28;20193;-71
2023/07/30 02:59:42;;;;;;;7.17;4.03;;;;;;;15.64;81.05;100663.41;4994287;28;20623;-71
2023/07/30 03:02:08;;;;;;;3.83;3.63;;;;;;;15.59;81.08;100668.50;4994155;28;20755;-71
2023/07/30 03:04:35;;;;;;;4.50;4.20;;;;;;;15.50;81.48;100679.38;4994007;28;20700;-71
2023/07/30 03:07:02;;;;;;;5.60;5.23;;;;;;;15.51;81.64;100664.06;4993972;28;20197;-71
2023/07/30 03:09:29;;;;;;;4.03;3.83;;;;;;;15.46;81.47;100675.34;4995541;28;20719;-71
2023/07/30 03:11:56;;;;;;;4.80;4.50;;;;;;;15.44;81.78;100674.72;4993839;28;20201;-71
2023/07/30 03:14:22;;;;;;;8.53;4.63;;;;;;;15.44;81.90;100673.88;4993869;28;20213;-71
2023/07/30 03:16:49;;;;;;;5.53;4.30;;;;;;;15.34;82.50;100676.81;4995401;28;20675;-71
2023/07/30 03:19:16;;;;;;;3.93;3.63;;;;;;;15.27;83.15;100683.97;4995081;28;20181;-71
2023/07/30 03:21:42;;;;;;;3.90;3.50;;;;;;;15.22;82.77;100677.47;4993674;28;20271;-71
2023/07/30 03:24:09;;;;;;;3.90;3.60;;;;;;;15.18;83.16;100676.16;4995049;28;20209;-71
2023/07/30 03:26:35;;;;;;;3.50;3.30;;;;;;;15.15;83.27;100682.72;4994945;28;20741;-71
2023/07/30 03:29:01;;;;;;;7.50;4.70;;;;;;;15.20;83.33;100683.00;4993567;28;20213;-71
2023/07/30 03:31:28;;;;;;;5.47;4.97;;;;;;;15.39;82.21;100676.28;4994837;28;20611;-71
2023/07/30 03:33:55;;;;;;;4.77;4.20;;;;;;;15.39;81.92;100671.72;4994724;28;20256;-71
2023/07/30 03:36:21;;;;;;;6.87;4.10;;;;;;;15.46;81.71;100680.75;4995324;28;20660;-71
2023/07/30 03:38:48;;;;;;;9.63;3.63;;;;;;;15.46;81.38;100683.44;4993447;28;20207;-71
2023/07/30 03:41:14;;;;;;;6.10;4.63;;;;;;;15.39;81.39;100671.72;4994681;28;20536;-71
2023/07/30 03:43:41;;;;;;;5.37;4.20;;;;;;;15.29;81.99;100684.63;4993338;28;20213;-71
2023/07/30 03:46:07;;;;;;;11.20;4.77;;;;;;;15.32;81.98;100684.25;4994557;28;20189;-71
2023/07/30 03:48:34;;;;;;;5.97;4.50;;;;;;;15.36;81.00;100688.25;5009650;28;20683;-71
2023/07/30 03:51:00;;;;;;;4.67;4.23;;;;;;;15.34;81.55;100692.16;4992634;28;20193;-71
2023/07/30 03:53:27;;;;;;;8.57;4.40;;;;;;;15.30;82.00;100689.00;4994840;28;20209;-72
2023/07/30 03:55:53;;;;;;;10.70;4.00;;;;;;;15.27;81.87;100697.44;4993216;28;20247;-71
2023/07/30 03:58:20;;;;;;;5.40;4.27;;;;;;;15.25;82.51;100699.47;5009538;28;20181;-71
2023/07/30 04:00:46;;;;;;;6.63;4.60;;;;;;;15.23;82.11;100703.38;4994698;28;20173;-71
2023/07/30 04:03:13;;;;;;;8.40;4.60;;;;;;;15.25;82.17;100704.84;4994290;28;20213;-71
2023/07/30 04:05:39;;;;;;;4.93;4.50;;;;;;;15.14;82.33;100707.16;4993083;28;20190;-71
2023/07/30 04:08:06;;;;;;;5.43;4.10;;;;;;;15.09;82.39;100713.09;4994473;28;20197;-71
2023/07/30 04:10:32;;;;;;;5.03;4.43;;;;;;;15.14;82.72;100710.69;4992979;28;20197;-71
2023/07/30 04:12:59;;;;;;;4.70;4.30;;;;;;;15.04;83.29;100704.69;4994060;28;20228;-71
2023/07/30 04:15:26;;;;;;;4.60;4.10;;;;;;;15.06;83.22;100716.16;4992855;28;20549;-71
2023/07/30 04:17:53;;;;;;;7.97;4.50;;;;;;;15.20;82.90;100706.41;5009219;28;20674;-71
2023/07/30 04:20:20;;;;;;;11.43;4.60;;;;;;;15.20;83.01;100715.34;4994258;28;20185;-71
2023/07/30 04:22:46;;;;;;;11.43;5.93;;;;;;;15.16;82.83;100705.94;4994000;28;20209;-71
2023/07/30 04:25:13;;;;;;;6.50;5.30;;;;;;;15.25;82.79;100707.56;4992794;28;20257;-71
2023/07/30 04:27:39;;;;;;;11.30;5.00;;;;;;;15.28;82.30;100709.88;4992539;28;20217;-71
2023/07/30 04:30:06;;;;;;;8.80;4.83;;;;;;;15.25;82.52;100706.72;4993847;28;20189;-71
2023/07/30 04:32:33;;;;;;;12.83;4.47;;;;;;;15.19;82.66;100705.56;4993798;28;20667;-71
2023/07/30 04:35:01;;;;;;;10.90;4.23;;;;;;;15.18;82.56;100705.78;4992719;28;20186;-71
2023/07/30 04:37:27;;;;;;;11.37;4.27;;;;;;;15.23;83.34;100712.31;5009028;28;20193;-71
2023/07/30 04:39:54;;;;;;;5.27;3.80;;;;;;;15.26;82.45;100713.78;4992618;28;20205;-72
2023/07/30 04:42:20;;;;;;;11.60;4.20;;;;;;;15.26;82.33;100711.94;4994051;28;20264;-71
2023/07/30 04:44:47;;;;;;;9.73;5.03;;;;;;;15.28;82.19;100719.81;4992836;28;20197;-71
2023/07/30 04:47:15;;;;;;;5.83;4.13;;;;;;;15.29;82.17;100718.78;4992529;28;20189;-71
2023/07/30 04:49:42;;;;;;;6.97;4.00;;;;;;;15.23;82.63;100717.69;4993714;28;20209;-71
2023/07/30 04:52:08;;;;;;;4.80;4.50;;;;;;;15.25;82.21;100718.31;4994282;28;20193;-69
2023/07/30 04:54:37;;;;;;;7.03;4.60;;;;;;;15.20;82.34;100715.34;4993665;28;20209;-69
2023/07/30 04:57:05;;;;;;;19.17;5.60;;;;;;;15.31;82.16;100716.75;4992479;28;20616;-69
2023/07/30 04:59:33;;;;;;;10.03;4.80;;;;;;;15.28;82.54;100720.66;4993981;28;20185;-69
2023/07/30 05:02:00;;;;;;;27.80;5.07;;;;;;;15.30;82.35;100709.69;4993931;28;20555;-69
2023/07/30 05:04:27;;;;;;;8.77;4.73;;;;;;;15.30;82.41;100715.94;4997343;28;20213;-69
2023/07/30 05:06:53;;;;;;;7.70;4.67;;;;;;;15.31;82.84;100714.91;4997518;28;20197;-69
2023/07/30 05:09:20;;;;;;;5.23;4.83;;;;;;;15.31;82.06;100714.06;4997686;28;20237;-69
2023/07/30 05:11:46;;;;;;;7.77;5.80;;;;;;;15.32;82.30;100713.88;4997606;28;20201;-69
2023/07/30 05:14:13;;;;;;;6.47;4.33;;;;;;;15.41;82.59;100712.78;4997927;28;20684;-69
2023/07/30 05:16:39;;;;;;;5.80;4.97;;;;;;;15.38;82.53;100712.31;4997870;28;20231;-69
2023/07/30 05:19:05;;;;;;;9.10;5.33;;;;;;;15.29;82.81;100714.25;4997595;28;20209;-69
2023/07/30 05:21:32;;;;;;;8.53;5.80;;;;;;;15.36;82.39;100714.38;4997308;28;20211;-69
2023/07/30 05:23:58;;;;;;;8.43;5.23;;;;;;;15.37;82.25;100716.03;4997236;28;20213;-69
2023/07/30 05:26:25;;;;;;;13.27;5.33;;;;;;;15.36;82.25;100725.97;4997199;28;20664;-69
2023/07/30 05:28:51;;;;;;;11.60;5.73;;;;;;;15.32;83.37;100723.84;4997859;28;20267;-69
2023/07/30 05:31:17;;;;;;;10.40;6.30;;;;;;;15.33;82.75;100726.31;4997089;28;20243;-69
2023/07/30 05:33:44;;;;;;;7.13;6.53;;;;;;;15.34;82.47;100719.94;4997014;28;20212;-69
2023/07/30 05:36:10;;;;;;;15.90;6.90;;;;;;;15.35;82.64;100720.78;4996998;28;20240;-69
2023/07/30 05:38:37;;;;;;;14.37;5.80;;;;;;;15.29;82.79;100716.09;4997466;28;20181;-69
2023/07/30 05:41:03;;;;;;;8.13;5.80;;;;;;;15.36;82.76;100720.56;4996911;28;20734;-69
2023/07/30 05:43:29;;;;;;;8.13;6.40;;;;;;;15.37;82.70;100721.41;4997096;28;20217;-69
2023/07/30 05:45:56;;;;;;;13.20;5.63;;;;;;;15.37;82.42;100719.56;4997115;28;20197;-69
2023/07/30 05:48:22;;;;;;;10.43;5.33;;;;;;;15.38;83.19;100723.94;4996730;28;20217;-69
2023/07/30 05:50:49;;;;;;;7.50;4.90;;;;;;;15.40;83.08;100724.56;4996761;28;20189;-69
2023/07/30 05:53:15;;;;;;;14.07;5.90;;;;;;;15.38;82.47;100725.78;4996884;28;20212;-69
2023/07/30 05:55:41;;;;;;;7.73;6.00;;;;;;;15.41;82.11;100715.47;4996937;28;20719;-69
2023/07/30 05:58:08;;;;;;;7.83;5.03;;;;;;;15.43;82.39;100720.69;4996616;28;20559;-69
2023/07/30 06:00:34;;;;;;;11.33;5.10;;;;;;;15.50;81.05;100722.50;4996856;28;20198;-69
2023/07/30 06:03:01;;;;;;;12.33;4.93;;;;;;;15.52;81.76;100731.25;4996493;28;20260;-69
2023/07/30 06:05:28;;;;;;;9.80;5.23;;;;;;;15.51;82.36;100736.81;4996524;28;20217;-68
2023/07/30 06:07:54;;;;;;;10.97;4.47;;;;;;;15.56;82.24;100738.94;4996404;28;20548;-68
2023/07/30 06:10:20;;;;;;;12.13;5.93;;;;;;;15.56;81.60;100736.25;4996689;28;20193;-69
2023/07/30 06:12:47;;;;;;;8.30;4.63;;;;;;;15.53;82.17;100743.66;4996394;28;20598;-68
2023/07/30 06:15:13;;;;;;;14.67;4.93;;;;;;;15.65;82.02;100740.56;4995383;28;20240;-68
2023/07/30 06:17:40;;;;;;;13.40;5.97;;;;;;;15.58;81.68;100736.91;4997033;28;20197;-68
2023/07/30 06:20:07;;;;;;;12.53;5.03;;;;;;;15.59;81.92;100734.03;4996488;28;20201;-69
2023/07/30 06:22:33;;;;;;;9.70;5.07;;;;;;;15.56;83.01;100737.09;4996087;28;20276;-69
2023/07/30 06:25:00;;;;;;;16.70;6.30;;;;;;;15.54;82.73;100745.34;4996141;28;20244;-69
2023/07/30 06:27:26;;;;;;;12.13;5.70;;;;;;;15.60;81.89;100742.94;4996351;28;20597;-69
2023/07/30 06:29:53;;;;;;;9.70;5.40;;;;;;;15.54;82.30;100745.34;4995988;28;20213;-69
2023/07/30 06:32:19;;;;;;;6.97;4.97;;;;;;;15.61;82.13;100750.03;4996170;28;20197;-69
2023/07/30 06:34:46;;;;;;;7.40;5.20;;;;;;;15.65;82.09;100752.16;4996178;28;20260;-69
2023/07/30 06:37:12;;;;;;;9.87;6.23;;;;;;;15.60;82.70;100748.34;4995887;28;20207;-69
2023/07/30 06:39:38;;;;;;;15.00;5.50;;;;;;;15.65;82.37;100756.72;4995864;28;20244;-69
2023/07/30 06:42:05;;;;;;;6.20;4.47;;;;;;;15.58;82.82;100753.91;4995815;28;20579;-69
2023/07/30 06:44:32;;;;;;;6.13;5.00;;;;;;;15.66;82.88;100753.00;5010992;28;20217;-69
2023/07/30 06:46:58;;;;;;;11.73;5.57;;;;;;;15.65;82.32;100751.34;4995741;28;20239;-69
2023/07/30 06:49:25;;;;;;;6.53;5.10;;;;;;;15.71;82.69;100753.28;4995830;28;20296;-69
2023/07/30 06:51:51;;;;;;;9.13;6.43;;;;;;;15.67;82.85;100760.06;4996167;28;20244;-69
2023/07/30 06:54:18;;;;;;;12.13;6.03;;;;;;;15.70;82.74;100746.22;4995742;28;20212;-68
2023/07/30 06:56:44;;;;;;;11.73;6.43;;;;;;;15.76;82.48;100754.41;4995792;28;20588;-69
2023/07/30 06:59:10;;;;;;;6.43;5.30;;;;;;;15.80;82.88;100753.00;4996060;28;20177;-68
2023/07/30 07:01:37;;;;;;;9.73;6.00;;;;;;;15.72;83.71;100754.94;4995448;28;20194;-69
2023/07/30 07:04:04;;;;;;;5.43;4.93;;;;;;;15.71;83.74;100759.50;4996175;28;20337;-69
2023/07/30 07:06:30;;;;;;;11.80;4.97;;;;;;;15.77;84.17;100763.34;4995846;28;20205;-69
2023/07/30 07:08:57;;;;;;;7.67;4.83;;;;;;;15.77;84.36;100760.63;4995239;28;20342;-70
2023/07/30 07:11:23;;;;;;;6.00;5.00;;;;;;;15.73;84.69;100760.16;4995070;28;20240;-70
2023/07/30 07:13:49;;;;;;;5.20;4.13;;;;;;;15.69;84.72;100758.88;4995277;28;20208;-70
2023/07/30 07:16:16;;;;;;;4.97;4.33;;;;;;;15.75;84.80;100757.28;4995742;28;20184;-70
2023/07/30 07:18:42;;;;;;;10.33;4.90;;;;;;;15.80;84.89;100760.25;4995076;28;20193;-70
2023/07/30 07:21:10;;;;;;;5.20;4.73;;;;;;;15.86;84.39;100765.75;4995128;28;20614;-70
2023/07/30 07:23:36;;;;;;;5.10;4.40;;;;;;;15.79;84.48;100769.34;4994979;28;20209;-70
2023/07/30 07:26:03;;;;;;;4.93;3.77;;;;;;;15.90;84.10;100777.00;4994880;28;20181;-70
2023/07/30 07:28:29;;;;;;;7.27;4.50;;;;;;;15.82;84.08;100774.41;4994853;28;20205;-70
2023/07/30 07:30:57;;;;;;;6.10;5.10;;;;;;;15.87;84.53;100774.69;4994797;28;20667;-70
2023/07/30 07:33:23;;;;;;;8.40;4.03;;;;;;;15.88;84.21;100774.50;4994973;28;20280;-70
2023/07/30 07:35:50;;;;;;;3.27;2.97;;;;;;;15.82;84.16;100772.56;4995328;28;20189;-70
2023/07/30 07:38:16;;;;;;;3.80;3.30;;;;;;;15.81;84.09;100780.81;4994824;28;20186;-70
2023/07/30 07:40:43;;;;;;;8.60;4.97;;;;;;;15.83;84.61;100765.28;4994710;28;20248;-69
2023/07/30 07:43:10;;;;;;;4.97;3.60;;;;;;;15.97;84.29;100778.78;4995162;28;20205;-70
2023/07/30 07:45:36;;;;;;;12.00;4.07;;;;;;;16.16;82.73;100780.09;4994739;28;20205;-70
2023/07/30 07:48:02;;;;;;;6.70;3.80;;;;;;;16.25;81.56;100776.25;4994518;28;20236;-70
2023/07/30 07:50:29;;;;;;;9.40;4.07;;;;;;;16.31;81.44;100783.59;4994410;28;20686;-70
2023/07/30 07:52:55;;;;;;;8.73;3.80;;;;;;;16.21;82.02;100790.31;4994702;28;20223;-69
2023/07/30 07:55:22;;;;;;;4.77;4.33;;;;;;;16.23;82.08;100778.31;4995005;28;20166;-69
2023/07/30 07:57:49;;;;;;;5.80;3.70;;;;;;;16.31;81.50;100783.59;4994378;28;20652;-70
2023/07/30 08:00:15;;;;;;;4.87;3.77;;;;;;;16.30;81.14;100786.47;4994852;28;20257;-70
2023/07/30 08:02:42;;;;;;;8.20;3.37;;;;;;;16.29;81.61;100782.13;4994510;28;20213;-70
2023/07/30 08:05:08;;;;;;;9.60;4.80;;;;;;;16.31;81.27;100790.88;4994852;28;20169;-70
2023/07/30 08:07:35;;;;;;;7.17;3.97;;;;;;;16.31;82.47;100797.09;4994784;28;20193;-70
2023/07/30 08:10:01;;;;;;;4.80;4.40;;;;;;;16.47;81.27;100779.84;4994187;28;20627;-70
2023/07/30 08:12:28;;;;;;;4.70;4.27;;;;;;;16.50;81.57;100784.91;4994379;28;20194;-70
2023/07/30 08:14:55;;;;;;;6.00;4.27;;;;;;;16.55;81.49;100787.84;4994170;28;20191;-70
2023/07/30 08:17:22;;;;;;;5.27;3.17;;;;;;;16.62;80.63;100793.38;4994647;28;20189;-70
2023/07/30 08:19:49;;;;;;;6.63;4.70;;;;;;;16.56;81.98;100789.53;4994432;28;20252;-69
2023/07/30 08:22:15;;;;;;;6.10;4.13;;;;;;;16.71;80.94;100790.38;4994429;28;20248;-69
2023/07/30 08:24:41;;;;;;;4.77;4.47;;;;;;;16.71;80.48;100784.97;4993995;28;20185;-70
2023/07/30 08:27:08;;;;;;;5.90;4.97;;;;;;;16.74;81.37;100783.75;4994582;28;20225;-70
2023/07/30 08:29:34;;;;;;;12.70;5.50;;;;;;;16.54;81.16;100786.19;4994192;28;20209;-70
2023/07/30 08:32:05;;;;;;;13.53;5.33;;;;;;;16.71;80.49;100784.97;4994480;28;20289;-70
2023/07/30 08:34:31;;;;;;;7.93;4.27;;;;;;;16.70;81.06;100786.00;4993871;28;20219;-70
2023/07/30 08:36:58;;;;;;;12.93;4.73;;;;;;;16.68;81.74;100774.53;4993558;28;20236;-70
2023/07/30 08:39:24;;;;;;;4.50;4.20;;;;;;;16.68;81.39;100777.25;4994205;28;20595;-70
2023/07/30 08:41:51;;;;;;;9.13;4.73;;;;;;;16.50;82.07;100778.66;4994391;28;20193;-70
2023/07/30 08:44:17;;;;;;;7.60;5.10;;;;;;;16.75;81.40;100785.44;4993820;28;20213;-70
2023/07/30 08:46:44;;;;;;;4.93;3.47;;;;;;;16.66;81.67;100786.56;4994142;28;20691;-69
2023/07/30 08:49:10;;;;;;;7.83;5.33;;;;;;;16.93;80.82;100783.13;4993737;28;20251;-70
2023/07/30 08:51:41;;;;;;;5.97;5.37;;;;;;;17.02;80.49;100781.13;4993817;28;20248;-70
2023/07/30 08:54:09;;;;;;;7.40;5.00;;;;;;;17.01;79.72;100783.03;4993773;28;20242;-70
2023/07/30 08:56:36;;;;;;;11.93;5.83;;;;;;;16.94;79.58;100789.38;4993739;28;20684;-70
2023/07/30 08:59:03;;;;;;;8.50;4.90;;;;;;;16.99;79.78;100792.34;4993716;28;20185;-70
2023/07/30 09:01:36;;;;;;;8.67;5.00;;;;;;;17.07;79.59;100790.34;4993979;28;20190;-70
2023/07/30 09:04:04;;;;;;;10.37;4.97;;;;;;;17.06;79.32;100790.56;4993576;28;20271;-70
2023/07/30 09:06:30;;;;;;;15.07;4.80;;;;;;;17.12;78.34;100796.03;4993847;28;20687;-69
2023/07/30 09:08:57;;;;;;;13.23;6.40;;;;;;;16.93;77.83;100809.31;4994073;28;20208;-69
2023/07/30 09:11:27;;;;;;;12.33;6.17;;;;;;;16.85;77.93;100807.56;4993362;28;20197;-70
2023/07/30 09:13:55;;;;;;;8.13;5.30;;;;;;;16.95;78.03;100807.25;4994094;28;20691;-69
2023/07/30 09:16:25;;;;;;;9.47;6.37;;;;;;;17.08;77.65;100805.53;4993569;28;20656;-69
2023/07/30 09:18:53;;;;;;;14.33;5.03;;;;;;;17.21;77.04;100805.69;4993572;28;20189;-70
2023/07/30 09:21:32;;;;;;;10.33;5.43;;;;;;;17.34;77.31;100810.38;4993787;28;20193;-70
2023/07/30 09:24:06;;;;;;;14.20;5.17;;;;;;;17.47;76.40;100812.34;4993607;28;20208;-69
2023/07/30 09:26:43;;;;;;;10.50;5.30;;;;;;;17.61;76.38;100809.59;4993989;28;20178;-69
2023/07/30 09:29:10;;;;;;;8.90;5.07;;;;;;;17.78;75.41;100812.84;4993901;28;20201;-69
2023/07/30 09:31:56;;;;;;;6.10;4.90;;;;;;;17.83;73.50;100809.56;4993445;28;20251;-69
2023/07/30 09:34:24;;;;;;;17.17;5.00;;;;;;;17.87;75.26;100808.13;4993368;28;20696;-69
2023/07/30 09:36:51;;;;;;;9.27;5.27;;;;;;;17.97;74.46;100803.22;4993901;28;20236;-69
2023/07/30 09:39:26;;;;;;;13.47;5.90;;;;;;;18.20;74.75;100804.59;4993310;28;20185;-69
2023/07/30 09:42:00;;;;;;;4.27;3.77;;;;;;;18.08;72.40;100803.50;4993348;28;20189;-69
2023/07/30 09:44:27;;;;;;;5.53;4.60;;;;;;;18.23;72.66;100814.22;4993303;28;20213;-69
2023/07/30 09:46:53;;;;;;;8.30;4.47;;;;;;;18.45;72.55;100810.38;4993841;28;20652;-69
2023/07/30 09:49:19;;;;;;;6.57;4.37;;;;;;;18.48;70.75;100806.44;4993431;28;20247;-69
2023/07/30 09:51:46;;;;;;;13.70;4.70;;;;;;;18.56;69.44;100807.13;4997407;28;20177;-69
2023/07/30 09:54:14;;;;;;;12.67;3.40;;;;;;;18.64;69.38;100815.06;4996686;28;20213;-69
2023/07/30 09:56:41;;;;;;;6.50;3.33;;;;;;;18.75;69.17;100816.38;4996690;28;20185;-69
2023/07/30 09:59:09;;;;;;;6.00;3.87;;;;;;;18.69;67.54;100807.19;4997175;28;20239;-69
2023/07/30 10:01:43;;;;;;;6.07;3.83;;;;;;;18.65;68.86;100815.91;4996568;28;20551;-71
2023/07/30 10:04:10;;;;;;;5.93;3.60;;;;;;;18.83;66.62;100813.50;4996345;28;20208;-71
2023/07/30 10:06:49;;;;;;;12.03;3.80;;;;;;;19.00;66.31;100819.38;4996769;28;20189;-71
2023/07/30 10:09:19;;;;;;;6.10;4.20;;;;;;;18.91;64.49;100812.47;4996686;28;20216;-72
2023/07/30 10:11:47;;;;;;;7.40;4.50;;;;;;;18.73;64.98;100804.91;4996294;28;20613;-71
2023/07/30 10:14:17;;;;;;;3.73;3.50;;;;;;;18.81;65.95;100809.31;4996870;28;20209;-71
2023/07/30 10:16:54;;;;;;;4.40;4.00;;;;;;;18.76;66.31;100814.47;4996552;28;20236;-71
2023/07/30 10:19:25;;;;;;;4.20;3.97;;;;;;;18.70;66.50;100813.44;4996837;28;20224;-71
2023/07/30 10:22:12;;;;;;;7.83;3.83;;;;;;;18.75;66.06;100807.41;4996461;28;20193;-71
2023/07/30 10:24:39;;;;;;;6.47;4.37;;;;;;;18.76;67.50;100804.50;4996654;28;20226;-71
2023/07/30 10:27:06;;;;;;;10.60;4.03;;;;;;;18.95;66.50;100811.03;4996686;28;20243;-71
2023/07/30 10:29:35;;;;;;;3.77;3.50;;;;;;;19.04;65.97;100804.38;4996282;28;20611;-71
2023/07/30 10:32:02;;;;;;;4.60;3.27;;;;;;;19.04;67.13;100796.25;4996554;28;20189;-71
2023/07/30 10:34:55;;;;;;;4.07;3.70;;;;;;;18.89;66.18;100799.13;4995939;28;20272;-71
2023/07/30 10:37:23;;;;;;;4.80;4.10;;;;;;;18.95;65.55;100806.44;4994092;28;20249;-71
2023/07/30 10:39:50;;;;;;;6.37;3.40;;;;;;;18.78;62.68;100804.28;4996417;28;20181;-72
2023/07/30 10:42:18;;;;;;;5.53;4.40;;;;;;;18.58;64.54;100809.66;4996338;28;20203;-71
2023/07/30 10:44:45;;;;;;;5.43;3.50;;;;;;;18.62;65.26;100810.91;4995733;28;20181;-71
2023/07/30 10:47:12;;;;;;;7.93;3.97;;;;;;;18.73;65.83;100818.44;4995983;28;20711;-71
2023/07/30 10:50:02;;;;;;;3.83;3.60;;;;;;;18.64;64.27;100817.78;4996142;28;20197;-71
2023/07/30 10:52:29;;;;;;;3.23;2.93;;;;;;;18.61;65.00;100823.59;4995787;28;20236;-71
2023/07/30 10:55:01;;;;;;;3.83;3.53;;;;;;;18.53;65.73;100812.13;4996120;28;20610;-71
2023/07/30 10:57:33;;;;;;;8.60;3.80;;;;;;;18.46;65.14;100820.16;4996086;28;20301;-72
2023/07/30 11:00:00;;;;;;;3.47;3.37;;;;;;;18.68;67.33;100824.47;4995553;28;20170;-71
2023/07/30 11:02:28;;;;;;;5.93;3.73;;;;;;;18.95;64.59;100809.16;4995717;28;20552;-70
2023/07/30 11:04:55;;;;;;;6.53;3.50;;;;;;;18.99;64.22;100804.16;4995684;28;20672;-71
2023/07/30 11:07:21;;;;;;;5.50;3.73;;;;;;;18.95;63.52;100806.44;4995631;28;20247;-71
2023/07/30 11:09:59;;;;;;;7.43;3.67;;;;;;;19.10;63.77;100811.66;4995226;28;20209;-73
2023/07/30 11:12:26;;;;;;;3.67;3.37;;;;;;;19.29;61.90;100818.19;4995260;28;20197;-71
2023/07/30 11:15:00;;;;;;;5.10;2.77;;;;;;;19.35;62.53;100803.81;4995475;28;20595;-71
2023/07/30 11:17:27;;;;;;;4.50;3.77;;;;;;;19.54;60.96;100811.16;4995482;28;20216;-71
2023/07/30 11:19:53;;;;;;;5.40;2.63;;;;;;;19.67;61.64;100821.16;4995377;28;20543;-72
2023/07/30 11:22:30;;;;;;;5.47;3.10;;;;;;;19.97;61.08;100823.25;4995557;28;20201;-70
2023/07/30 11:24:57;;;;;;;3.30;3.07;;;;;;;19.80;58.49;100821.19;4995313;28;20510;-71